sensor_id;sensor_type;location;lat;lon;timestamp;P1;durP1;ratioP1;P2;durP2;ratioP2
75655;SDS011;64252;51.094;13.714;2023-02-19T00:01:25;6.10;;;2.55;;
75655;SDS011;64252;51.094;13.714;2023-02-19T00:03:54;5.38;;;2.22;;
75655;SDS011;64252;51.094;13.714;2023-02-19T00:06:21;4.82;;;2.10;;
75655;SDS011;64252;51.094;13.714;2023-02-19T00:08:50;6.55;;;2.35;;
75655;SDS011;64252;51.094;13.714;2023-02-19T00:11:19;7.78;;;1.75;;
75655;SDS011;64252;51.094;13.714;2023-02-19T00:13:48;7.70;;;2.20;;
75655;SDS011;64252;51.094;13.714;2023-02-19T00:16:20;8.35;;;3.13;;
75655;SDS011;64252;51.094;13.714;2023-02-19T00:18:47;7.72;;;3.03;;
75655;SDS011;64252;51.094;13.714;2023-02-19T00:21:14;5.10;;;1.90;;
75655;SDS011;64252;51.094;13.714;2023-02-19T00:23:42;6.10;;;2.08;;
75655;SDS011;64252;51.094;13.714;2023-02-19T00:26:09;6.63;;;2.30;;
75655;SDS011;64252;51.094;13.714;2023-02-19T00:28:38;7.28;;;1.90;;
75655;SDS011;64252;51.094;13.714;2023-02-19T00:31:05;6.63;;;2.40;;
75655;SDS011;64252;51.094;13.714;2023-02-19T00:33:32;5.85;;;2.28;;
75655;SDS011;64252;51.094;13.714;2023-02-19T00:35:58;7.55;;;2.50;;
75655;SDS011;64252;51.094;13.714;2023-02-19T00:38:25;5.45;;;2.00;;
75655;SDS011;64252;51.094;13.714;2023-02-19T00:40:50;4.03;;;1.70;;
75655;SDS011;64252;51.094;13.714;2023-02-19T00:43:16;6.95;;;2.40;;
75655;SDS011;64252;51.094;13.714;2023-02-19T00:45:41;6.15;;;1.75;;
75655;SDS011;64252;51.094;13.714;2023-02-19T00:48:07;4.88;;;1.50;;
75655;SDS011;64252;51.094;13.714;2023-02-19T00:50:32;5.40;;;1.70;;
75655;SDS011;64252;51.094;13.714;2023-02-19T00:52:57;4.32;;;1.88;;
75655;SDS011;64252;51.094;13.714;2023-02-19T00:55:23;4.03;;;1.70;;
75655;SDS011;64252;51.094;13.714;2023-02-19T00:57:48;3.47;;;1.80;;
75655;SDS011;64252;51.094;13.714;2023-02-19T01:00:14;4.22;;;1.63;;
75655;SDS011;64252;51.094;13.714;2023-02-19T01:02:39;4.13;;;1.83;;
75655;SDS011;64252;51.094;13.714;2023-02-19T01:05:05;5.40;;;1.85;;
75655;SDS011;64252;51.094;13.714;2023-02-19T01:07:31;4.50;;;1.75;;
75655;SDS011;64252;51.094;13.714;2023-02-19T01:10:00;5.38;;;2.10;;
75655;SDS011;64252;51.094;13.714;2023-02-19T01:12:25;4.28;;;1.80;;
75655;SDS011;64252;51.094;13.714;2023-02-19T01:14:52;6.38;;;1.83;;
75655;SDS011;64252;51.094;13.714;2023-02-19T01:17:19;5.68;;;1.65;;
75655;SDS011;64252;51.094;13.714;2023-02-19T01:19:45;3.30;;;1.70;;
75655;SDS011;64252;51.094;13.714;2023-02-19T01:22:11;3.95;;;1.75;;
75655;SDS011;64252;51.094;13.714;2023-02-19T01:24:36;4.00;;;1.60;;
75655;SDS011;64252;51.094;13.714;2023-02-19T01:27:02;3.53;;;1.70;;
75655;SDS011;64252;51.094;13.714;2023-02-19T01:29:28;5.13;;;1.77;;
75655;SDS011;64252;51.094;13.714;2023-02-19T01:31:53;3.90;;;1.60;;
75655;SDS011;64252;51.094;13.714;2023-02-19T01:34:19;3.50;;;1.55;;
75655;SDS011;64252;51.094;13.714;2023-02-19T01:36:45;4.70;;;1.95;;
75655;SDS011;64252;51.094;13.714;2023-02-19T01:39:12;4.03;;;1.40;;
75655;SDS011;64252;51.094;13.714;2023-02-19T01:41:38;4.28;;;1.58;;
75655;SDS011;64252;51.094;13.714;2023-02-19T01:46:44;2.95;;;1.33;;
75655;SDS011;64252;51.094;13.714;2023-02-19T01:49:22;5.50;;;1.27;;
75655;SDS011;64252;51.094;13.714;2023-02-19T01:52:00;4.80;;;1.50;;
75655;SDS011;64252;51.094;13.714;2023-02-19T01:54:49;3.17;;;1.30;;
75655;SDS011;64252;51.094;13.714;2023-02-19T01:57:21;3.63;;;1.30;;
75655;SDS011;64252;51.094;13.714;2023-02-19T01:59:54;5.13;;;1.40;;
75655;SDS011;64252;51.094;13.714;2023-02-19T02:02:26;4.45;;;1.30;;
75655;SDS011;64252;51.094;13.714;2023-02-19T02:04:53;3.25;;;1.38;;
75655;SDS011;64252;51.094;13.714;2023-02-19T02:07:22;3.63;;;1.35;;
75655;SDS011;64252;51.094;13.714;2023-02-19T02:10:06;2.88;;;1.17;;
75655;SDS011;64252;51.094;13.714;2023-02-19T02:12:49;2.85;;;1.10;;
75655;SDS011;64252;51.094;13.714;2023-02-19T02:15:16;4.05;;;1.38;;
75655;SDS011;64252;51.094;13.714;2023-02-19T02:17:47;3.92;;;1.20;;
75655;SDS011;64252;51.094;13.714;2023-02-19T02:28:41;3.45;;;1.20;;
75655;SDS011;64252;51.094;13.714;2023-02-19T02:34:25;4.13;;;1.48;;
75655;SDS011;64252;51.094;13.714;2023-02-19T02:36:54;3.28;;;1.00;;
75655;SDS011;64252;51.094;13.714;2023-02-19T02:39:21;2.78;;;1.20;;
75655;SDS011;64252;51.094;13.714;2023-02-19T02:41:54;2.90;;;0.95;;
75655;SDS011;64252;51.094;13.714;2023-02-19T02:44:44;3.15;;;1.00;;
75655;SDS011;64252;51.094;13.714;2023-02-19T02:47:30;2.40;;;0.77;;
75655;SDS011;64252;51.094;13.714;2023-02-19T02:50:10;2.08;;;0.80;;
75655;SDS011;64252;51.094;13.714;2023-02-19T02:52:40;2.50;;;1.00;;
75655;SDS011;64252;51.094;13.714;2023-02-19T02:55:28;2.47;;;0.80;;
75655;SDS011;64252;51.094;13.714;2023-02-19T02:57:58;2.55;;;0.65;;
75655;SDS011;64252;51.094;13.714;2023-02-19T03:00:24;3.78;;;0.90;;
75655;SDS011;64252;51.094;13.714;2023-02-19T03:03:12;2.38;;;0.70;;
75655;SDS011;64252;51.094;13.714;2023-02-19T03:10:50;3.45;;;0.85;;
75655;SDS011;64252;51.094;13.714;2023-02-19T03:13:27;3.60;;;0.70;;
75655;SDS011;64252;51.094;13.714;2023-02-19T03:16:21;3.45;;;0.60;;
75655;SDS011;64252;51.094;13.714;2023-02-19T03:19:10;2.25;;;0.60;;
75655;SDS011;64252;51.094;13.714;2023-02-19T03:22:21;1.65;;;0.50;;
75655;SDS011;64252;51.094;13.714;2023-02-19T03:24:49;4.68;;;1.60;;
75655;SDS011;64252;51.094;13.714;2023-02-19T03:27:38;2.65;;;1.00;;
75655;SDS011;64252;51.094;13.714;2023-02-19T03:30:10;1.30;;;0.50;;
75655;SDS011;64252;51.094;13.714;2023-02-19T03:35:22;1.45;;;0.50;;
75655;SDS011;64252;51.094;13.714;2023-02-19T03:37:56;1.95;;;0.68;;
75655;SDS011;64252;51.094;13.714;2023-02-19T03:40:33;3.33;;;0.75;;
75655;SDS011;64252;51.094;13.714;2023-02-19T03:43:19;3.58;;;0.60;;
75655;SDS011;64252;51.094;13.714;2023-02-19T03:54:16;2.83;;;0.70;;
75655;SDS011;64252;51.094;13.714;2023-02-19T03:56:51;2.70;;;0.60;;
75655;SDS011;64252;51.094;13.714;2023-02-19T04:02:02;2.00;;;0.60;;
75655;SDS011;64252;51.094;13.714;2023-02-19T04:04:35;2.50;;;0.70;;
75655;SDS011;64252;51.094;13.714;2023-02-19T04:07:12;2.42;;;1.02;;
75655;SDS011;64252;51.094;13.714;2023-02-19T04:09:42;3.30;;;0.80;;
75655;SDS011;64252;51.094;13.714;2023-02-19T04:12:30;1.95;;;0.85;;
75655;SDS011;64252;51.094;13.714;2023-02-19T04:15:05;1.92;;;0.80;;
75655;SDS011;64252;51.094;13.714;2023-02-19T04:17:35;1.65;;;0.55;;
75655;SDS011;64252;51.094;13.714;2023-02-19T04:20:04;1.55;;;0.50;;
75655;SDS011;64252;51.094;13.714;2023-02-19T04:22:33;2.30;;;0.57;;
75655;SDS011;64252;51.094;13.714;2023-02-19T04:25:01;1.50;;;0.50;;
75655;SDS011;64252;51.094;13.714;2023-02-19T04:27:27;1.55;;;0.50;;
75655;SDS011;64252;51.094;13.714;2023-02-19T04:29:52;1.52;;;0.68;;
75655;SDS011;64252;51.094;13.714;2023-02-19T04:32:18;2.15;;;0.47;;
75655;SDS011;64252;51.094;13.714;2023-02-19T04:34:44;1.45;;;0.40;;
75655;SDS011;64252;51.094;13.714;2023-02-19T04:37:10;2.90;;;0.50;;
75655;SDS011;64252;51.094;13.714;2023-02-19T04:39:37;1.55;;;0.50;;
75655;SDS011;64252;51.094;13.714;2023-02-19T04:42:02;2.95;;;1.00;;
75655;SDS011;64252;51.094;13.714;2023-02-19T04:44:28;2.40;;;0.82;;
75655;SDS011;64252;51.094;13.714;2023-02-19T04:46:54;1.70;;;0.55;;
75655;SDS011;64252;51.094;13.714;2023-02-19T04:49:19;2.40;;;0.45;;
75655;SDS011;64252;51.094;13.714;2023-02-19T04:51:45;1.25;;;0.40;;
75655;SDS011;64252;51.094;13.714;2023-02-19T04:54:10;1.75;;;0.32;;
75655;SDS011;64252;51.094;13.714;2023-02-19T04:56:36;1.33;;;0.35;;
75655;SDS011;64252;51.094;13.714;2023-02-19T04:59:01;2.40;;;0.52;;
75655;SDS011;64252;51.094;13.714;2023-02-19T05:01:27;1.88;;;0.43;;
75655;SDS011;64252;51.094;13.714;2023-02-19T05:03:53;1.27;;;0.38;;
75655;SDS011;64252;51.094;13.714;2023-02-19T05:06:19;1.27;;;0.40;;
75655;SDS011;64252;51.094;13.714;2023-02-19T05:08:44;4.88;;;0.40;;
75655;SDS011;64252;51.094;13.714;2023-02-19T05:11:10;0.68;;;0.25;;
75655;SDS011;64252;51.094;13.714;2023-02-19T05:13:37;1.08;;;0.38;;
75655;SDS011;64252;51.094;13.714;2023-02-19T05:16:08;2.92;;;0.25;;
75655;SDS011;64252;51.094;13.714;2023-02-19T05:18:38;1.58;;;0.30;;
75655;SDS011;64252;51.094;13.714;2023-02-19T05:21:04;1.25;;;0.40;;
75655;SDS011;64252;51.094;13.714;2023-02-19T05:26:21;0.65;;;0.20;;
75655;SDS011;64252;51.094;13.714;2023-02-19T05:28:49;0.95;;;0.20;;
75655;SDS011;64252;51.094;13.714;2023-02-19T05:31:16;1.38;;;0.35;;
75655;SDS011;64252;51.094;13.714;2023-02-19T05:33:43;0.30;;;0.20;;
75655;SDS011;64252;51.094;13.714;2023-02-19T05:36:11;1.00;;;0.25;;
75655;SDS011;64252;51.094;13.714;2023-02-19T05:38:38;0.68;;;0.28;;
75655;SDS011;64252;51.094;13.714;2023-02-19T05:41:18;1.10;;;0.30;;
75655;SDS011;64252;51.094;13.714;2023-02-19T05:43:47;1.38;;;0.40;;
75655;SDS011;64252;51.094;13.714;2023-02-19T05:46:13;0.85;;;0.25;;
75655;SDS011;64252;51.094;13.714;2023-02-19T05:48:41;1.00;;;0.30;;
75655;SDS011;64252;51.094;13.714;2023-02-19T05:51:07;0.93;;;0.28;;
75655;SDS011;64252;51.094;13.714;2023-02-19T05:53:35;0.63;;;0.20;;
75655;SDS011;64252;51.094;13.714;2023-02-19T05:56:01;0.85;;;0.20;;
75655;SDS011;64252;51.094;13.714;2023-02-19T05:58:27;0.47;;;0.20;;
75655;SDS011;64252;51.094;13.714;2023-02-19T06:00:52;0.98;;;0.38;;
75655;SDS011;64252;51.094;13.714;2023-02-19T06:03:19;0.73;;;0.28;;
75655;SDS011;64252;51.094;13.714;2023-02-19T06:05:44;0.70;;;0.20;;
75655;SDS011;64252;51.094;13.714;2023-02-19T06:08:14;0.20;;;0.20;;
75655;SDS011;64252;51.094;13.714;2023-02-19T06:10:40;0.65;;;0.20;;
75655;SDS011;64252;51.094;13.714;2023-02-19T06:13:06;0.73;;;0.20;;
75655;SDS011;64252;51.094;13.714;2023-02-19T06:15:35;0.70;;;0.30;;
75655;SDS011;64252;51.094;13.714;2023-02-19T06:18:01;1.27;;;0.75;;
75655;SDS011;64252;51.094;13.714;2023-02-19T06:20:27;1.90;;;0.40;;
75655;SDS011;64252;51.094;13.714;2023-02-19T06:22:54;1.10;;;0.30;;
75655;SDS011;64252;51.094;13.714;2023-02-19T06:25:20;0.82;;;0.30;;
75655;SDS011;64252;51.094;13.714;2023-02-19T06:27:45;0.57;;;0.17;;
75655;SDS011;64252;51.094;13.714;2023-02-19T06:30:11;1.05;;;0.30;;
75655;SDS011;64252;51.094;13.714;2023-02-19T06:32:37;1.75;;;0.40;;
75655;SDS011;64252;51.094;13.714;2023-02-19T06:35:03;1.05;;;0.32;;
75655;SDS011;64252;51.094;13.714;2023-02-19T06:37:29;1.50;;;0.28;;
75655;SDS011;64252;51.094;13.714;2023-02-19T06:39:55;0.98;;;0.30;;
75655;SDS011;64252;51.094;13.714;2023-02-19T06:42:21;0.98;;;0.30;;
75655;SDS011;64252;51.094;13.714;2023-02-19T06:44:48;3.13;;;0.80;;
75655;SDS011;64252;51.094;13.714;2023-02-19T06:47:13;3.10;;;1.08;;
75655;SDS011;64252;51.094;13.714;2023-02-19T06:49:39;1.52;;;0.50;;
75655;SDS011;64252;51.094;13.714;2023-02-19T06:52:04;1.38;;;0.35;;
75655;SDS011;64252;51.094;13.714;2023-02-19T06:54:30;1.58;;;0.40;;
75655;SDS011;64252;51.094;13.714;2023-02-19T06:56:58;1.15;;;0.40;;
75655;SDS011;64252;51.094;13.714;2023-02-19T06:59:24;1.75;;;0.50;;
75655;SDS011;64252;51.094;13.714;2023-02-19T07:01:50;1.52;;;0.50;;
75655;SDS011;64252;51.094;13.714;2023-02-19T07:04:16;1.88;;;0.68;;
75655;SDS011;64252;51.094;13.714;2023-02-19T07:06:43;2.35;;;0.93;;
75655;SDS011;64252;51.094;13.714;2023-02-19T07:09:09;2.05;;;0.75;;
75655;SDS011;64252;51.094;13.714;2023-02-19T07:11:36;1.90;;;0.68;;
75655;SDS011;64252;51.094;13.714;2023-02-19T07:14:06;1.63;;;0.60;;
75655;SDS011;64252;51.094;13.714;2023-02-19T07:16:37;1.67;;;0.52;;
75655;SDS011;64252;51.094;13.714;2023-02-19T07:19:03;1.65;;;0.60;;
75655;SDS011;64252;51.094;13.714;2023-02-19T07:21:29;2.53;;;0.73;;
75655;SDS011;64252;51.094;13.714;2023-02-19T07:23:54;6.10;;;2.92;;
75655;SDS011;64252;51.094;13.714;2023-02-19T07:26:20;2.30;;;0.80;;
75655;SDS011;64252;51.094;13.714;2023-02-19T07:28:47;1.50;;;0.50;;
75655;SDS011;64252;51.094;13.714;2023-02-19T07:31:15;2.47;;;0.63;;
75655;SDS011;64252;51.094;13.714;2023-02-19T07:33:42;2.75;;;0.98;;
75655;SDS011;64252;51.094;13.714;2023-02-19T07:36:08;2.55;;;1.02;;
75655;SDS011;64252;51.094;13.714;2023-02-19T07:38:34;1.67;;;0.50;;
75655;SDS011;64252;51.094;13.714;2023-02-19T07:41:01;1.17;;;0.50;;
75655;SDS011;64252;51.094;13.714;2023-02-19T07:43:29;1.67;;;0.50;;
75655;SDS011;64252;51.094;13.714;2023-02-19T07:45:57;1.33;;;0.50;;
75655;SDS011;64252;51.094;13.714;2023-02-19T07:48:22;1.45;;;0.50;;
75655;SDS011;64252;51.094;13.714;2023-02-19T07:50:55;1.42;;;0.50;;
75655;SDS011;64252;51.094;13.714;2023-02-19T07:53:22;1.20;;;0.40;;
75655;SDS011;64252;51.094;13.714;2023-02-19T07:55:48;0.98;;;0.38;;
75655;SDS011;64252;51.094;13.714;2023-02-19T07:58:14;1.55;;;0.60;;
75655;SDS011;64252;51.094;13.714;2023-02-19T08:00:40;2.08;;;0.45;;
75655;SDS011;64252;51.094;13.714;2023-02-19T08:03:06;3.17;;;0.60;;
75655;SDS011;64252;51.094;13.714;2023-02-19T08:05:33;1.77;;;0.50;;
75655;SDS011;64252;51.094;13.714;2023-02-19T08:08:02;1.65;;;0.45;;
75655;SDS011;64252;51.094;13.714;2023-02-19T08:10:30;1.58;;;0.50;;
75655;SDS011;64252;51.094;13.714;2023-02-19T08:13:15;1.45;;;0.47;;
75655;SDS011;64252;51.094;13.714;2023-02-19T08:18:30;5.22;;;1.33;;
75655;SDS011;64252;51.094;13.714;2023-02-19T08:20:57;3.58;;;1.10;;
75655;SDS011;64252;51.094;13.714;2023-02-19T08:23:25;3.28;;;0.88;;
75655;SDS011;64252;51.094;13.714;2023-02-19T08:25:57;3.83;;;1.35;;
75655;SDS011;64252;51.094;13.714;2023-02-19T08:28:23;2.00;;;0.60;;
75655;SDS011;64252;51.094;13.714;2023-02-19T08:30:49;2.28;;;0.60;;
75655;SDS011;64252;51.094;13.714;2023-02-19T08:33:16;2.70;;;0.88;;
75655;SDS011;64252;51.094;13.714;2023-02-19T08:35:44;1.70;;;0.60;;
75655;SDS011;64252;51.094;13.714;2023-02-19T08:38:12;1.60;;;0.60;;
75655;SDS011;64252;51.094;13.714;2023-02-19T08:40:40;2.08;;;0.80;;
75655;SDS011;64252;51.094;13.714;2023-02-19T08:43:07;4.20;;;1.02;;
75655;SDS011;64252;51.094;13.714;2023-02-19T08:45:35;2.30;;;0.80;;
75655;SDS011;64252;51.094;13.714;2023-02-19T08:48:01;2.45;;;0.60;;
75655;SDS011;64252;51.094;13.714;2023-02-19T08:50:30;2.63;;;0.80;;
75655;SDS011;64252;51.094;13.714;2023-02-19T08:52:57;3.80;;;1.38;;
75655;SDS011;64252;51.094;13.714;2023-02-19T08:55:23;2.55;;;1.13;;
75655;SDS011;64252;51.094;13.714;2023-02-19T08:57:49;2.40;;;0.80;;
75655;SDS011;64252;51.094;13.714;2023-02-19T09:00:15;2.13;;;0.90;;
75655;SDS011;64252;51.094;13.714;2023-02-19T09:02:41;2.35;;;0.90;;
75655;SDS011;64252;51.094;13.714;2023-02-19T09:05:07;2.78;;;1.20;;
75655;SDS011;64252;51.094;13.714;2023-02-19T09:07:33;2.58;;;1.00;;
75655;SDS011;64252;51.094;13.714;2023-02-19T09:09:59;2.40;;;0.95;;
75655;SDS011;64252;51.094;13.714;2023-02-19T09:12:25;2.65;;;1.02;;
75655;SDS011;64252;51.094;13.714;2023-02-19T09:14:50;2.85;;;0.90;;
75655;SDS011;64252;51.094;13.714;2023-02-19T09:17:16;2.67;;;0.85;;
75655;SDS011;64252;51.094;13.714;2023-02-19T09:19:42;2.88;;;0.80;;
75655;SDS011;64252;51.094;13.714;2023-02-19T09:22:07;2.80;;;0.80;;
75655;SDS011;64252;51.094;13.714;2023-02-19T09:24:33;1.65;;;0.60;;
75655;SDS011;64252;51.094;13.714;2023-02-19T09:26:58;2.50;;;0.70;;
75655;SDS011;64252;51.094;13.714;2023-02-19T09:29:24;1.83;;;0.50;;
75655;SDS011;64252;51.094;13.714;2023-02-19T09:31:54;2.35;;;0.57;;
75655;SDS011;64252;51.094;13.714;2023-02-19T09:34:24;1.63;;;0.60;;
75655;SDS011;64252;51.094;13.714;2023-02-19T09:36:51;2.42;;;1.00;;
75655;SDS011;64252;51.094;13.714;2023-02-19T09:39:17;5.63;;;1.23;;
75655;SDS011;64252;51.094;13.714;2023-02-19T09:44:13;3.63;;;1.17;;
75655;SDS011;64252;51.094;13.714;2023-02-19T09:49:13;3.22;;;1.60;;
75655;SDS011;64252;51.094;13.714;2023-02-19T09:51:51;2.60;;;0.80;;
75655;SDS011;64252;51.094;13.714;2023-02-19T09:54:24;2.83;;;1.30;;
75655;SDS011;64252;51.094;13.714;2023-02-19T09:59:23;2.35;;;0.70;;
75655;SDS011;64252;51.094;13.714;2023-02-19T10:01:55;2.83;;;0.80;;
75655;SDS011;64252;51.094;13.714;2023-02-19T10:04:27;3.75;;;1.60;;
75655;SDS011;64252;51.094;13.714;2023-02-19T10:06:52;2.80;;;0.93;;
75655;SDS011;64252;51.094;13.714;2023-02-19T10:09:24;3.40;;;1.20;;
75655;SDS011;64252;51.094;13.714;2023-02-19T10:11:53;2.58;;;0.70;;
75655;SDS011;64252;51.094;13.714;2023-02-19T10:14:22;3.33;;;0.70;;
75655;SDS011;64252;51.094;13.714;2023-02-19T10:16:56;3.28;;;1.10;;
75655;SDS011;64252;51.094;13.714;2023-02-19T10:19:25;2.50;;;0.63;;
75655;SDS011;64252;51.094;13.714;2023-02-19T10:21:50;2.17;;;0.70;;
75655;SDS011;64252;51.094;13.714;2023-02-19T10:24:20;4.00;;;1.00;;
75655;SDS011;64252;51.094;13.714;2023-02-19T10:26:50;5.22;;;1.27;;
75655;SDS011;64252;51.094;13.714;2023-02-19T10:29:16;2.97;;;0.82;;
75655;SDS011;64252;51.094;13.714;2023-02-19T10:31:41;2.28;;;0.90;;
75655;SDS011;64252;51.094;13.714;2023-02-19T10:34:15;2.95;;;0.60;;
75655;SDS011;64252;51.094;13.714;2023-02-19T10:36:43;2.38;;;0.75;;
75655;SDS011;64252;51.094;13.714;2023-02-19T10:41:58;2.40;;;0.68;;
75655;SDS011;64252;51.094;13.714;2023-02-19T10:44:25;8.20;;;3.35;;
75655;SDS011;64252;51.094;13.714;2023-02-19T10:46:54;4.63;;;1.27;;
75655;SDS011;64252;51.094;13.714;2023-02-19T10:49:36;2.25;;;0.73;;
75655;SDS011;64252;51.094;13.714;2023-02-19T10:52:24;2.97;;;1.10;;
75655;SDS011;64252;51.094;13.714;2023-02-19T10:55:13;3.40;;;1.10;;
75655;SDS011;64252;51.094;13.714;2023-02-19T10:57:38;4.50;;;1.33;;
75655;SDS011;64252;51.094;13.714;2023-02-19T11:02:39;2.85;;;0.98;;
75655;SDS011;64252;51.094;13.714;2023-02-19T11:07:36;4.05;;;1.30;;
75655;SDS011;64252;51.094;13.714;2023-02-19T11:10:18;4.30;;;1.40;;
75655;SDS011;64252;51.094;13.714;2023-02-19T11:12:46;4.13;;;1.88;;
75655;SDS011;64252;51.094;13.714;2023-02-19T11:15:24;4.28;;;1.80;;
75655;SDS011;64252;51.094;13.714;2023-02-19T11:18:39;4.55;;;2.00;;
75655;SDS011;64252;51.094;13.714;2023-02-19T11:20:47;4.90;;;1.90;;
75655;SDS011;64252;51.094;13.714;2023-02-19T11:23:24;2.53;;;0.80;;
75655;SDS011;64252;51.094;13.714;2023-02-19T11:25:53;10.15;;;4.32;;
75655;SDS011;64252;51.094;13.714;2023-02-19T11:28:23;2.17;;;0.75;;
75655;SDS011;64252;51.094;13.714;2023-02-19T11:30:54;2.65;;;0.65;;
75655;SDS011;64252;51.094;13.714;2023-02-19T11:33:39;3.92;;;0.70;;
75655;SDS011;64252;51.094;13.714;2023-02-19T11:36:17;5.30;;;0.90;;
75655;SDS011;64252;51.094;13.714;2023-02-19T11:38:49;4.15;;;0.60;;
75655;SDS011;64252;51.094;13.714;2023-02-19T11:41:22;1.27;;;0.43;;
75655;SDS011;64252;51.094;13.714;2023-02-19T11:50:51;3.35;;;0.95;;
75655;SDS011;64252;51.094;13.714;2023-02-19T11:53:37;1.63;;;0.50;;
75655;SDS011;64252;51.094;13.714;2023-02-19T11:56:15;3.22;;;0.50;;
75655;SDS011;64252;51.094;13.714;2023-02-19T11:59:02;4.93;;;0.90;;
75655;SDS011;64252;51.094;13.714;2023-02-19T12:18:18;4.32;;;0.82;;
75655;SDS011;64252;51.094;13.714;2023-02-19T12:23:56;4.15;;;0.77;;
75655;SDS011;64252;51.094;13.714;2023-02-19T12:32:11;3.70;;;0.85;;
75655;SDS011;64252;51.094;13.714;2023-02-19T12:40:32;2.45;;;0.80;;
75655;SDS011;64252;51.094;13.714;2023-02-19T12:43:24;2.97;;;0.77;;
75655;SDS011;64252;51.094;13.714;2023-02-19T12:48:23;4.07;;;0.90;;
75655;SDS011;64252;51.094;13.714;2023-02-19T12:51:38;3.75;;;0.85;;
75655;SDS011;64252;51.094;13.714;2023-02-19T12:59:28;4.43;;;1.05;;
75655;SDS011;64252;51.094;13.714;2023-02-19T13:04:24;4.20;;;0.82;;
75655;SDS011;64252;51.094;13.714;2023-02-19T13:07:00;5.03;;;1.38;;
75655;SDS011;64252;51.094;13.714;2023-02-19T13:09:35;2.30;;;0.80;;
75655;SDS011;64252;51.094;13.714;2023-02-19T13:12:10;7.50;;;2.30;;
75655;SDS011;64252;51.094;13.714;2023-02-19T13:14:44;2.70;;;0.77;;
75655;SDS011;64252;51.094;13.714;2023-02-19T13:23:10;3.90;;;0.82;;
75655;SDS011;64252;51.094;13.714;2023-02-19T13:29:05;2.47;;;0.60;;
75655;SDS011;64252;51.094;13.714;2023-02-19T13:37:51;4.20;;;0.85;;
75655;SDS011;64252;51.094;13.714;2023-02-19T13:40:38;3.75;;;0.88;;
75655;SDS011;64252;51.094;13.714;2023-02-19T13:43:17;3.08;;;0.70;;
75655;SDS011;64252;51.094;13.714;2023-02-19T13:45:59;2.67;;;0.80;;
75655;SDS011;64252;51.094;13.714;2023-02-19T13:48:29;2.30;;;0.80;;
75655;SDS011;64252;51.094;13.714;2023-02-19T14:04:21;2.50;;;0.60;;
75655;SDS011;64252;51.094;13.714;2023-02-19T14:17:25;2.85;;;0.60;;
75655;SDS011;64252;51.094;13.714;2023-02-19T14:28:13;5.43;;;1.15;;
75655;SDS011;64252;51.094;13.714;2023-02-19T14:30:59;3.47;;;0.95;;
75655;SDS011;64252;51.094;13.714;2023-02-19T14:33:34;6.45;;;1.27;;
75655;SDS011;64252;51.094;13.714;2023-02-19T14:36:13;4.68;;;0.80;;
75655;SDS011;64252;51.094;13.714;2023-02-19T14:41:20;2.45;;;0.65;;
75655;SDS011;64252;51.094;13.714;2023-02-19T14:43:48;2.30;;;0.60;;
75655;SDS011;64252;51.094;13.714;2023-02-19T14:51:52;4.05;;;0.80;;
75655;SDS011;64252;51.094;13.714;2023-02-19T14:54:32;4.25;;;1.13;;
75655;SDS011;64252;51.094;13.714;2023-02-19T14:59:51;5.95;;;1.02;;
75655;SDS011;64252;51.094;13.714;2023-02-19T15:02:23;2.22;;;0.60;;
75655;SDS011;64252;51.094;13.714;2023-02-19T15:04:50;4.75;;;1.85;;
75655;SDS011;64252;51.094;13.714;2023-02-19T15:07:18;5.90;;;1.80;;
75655;SDS011;64252;51.094;13.714;2023-02-19T15:09:48;3.40;;;1.10;;
75655;SDS011;64252;51.094;13.714;2023-02-19T15:12:18;6.32;;;1.40;;
75655;SDS011;64252;51.094;13.714;2023-02-19T15:14:46;5.03;;;1.33;;
75655;SDS011;64252;51.094;13.714;2023-02-19T15:17:15;6.80;;;1.80;;
75655;SDS011;64252;51.094;13.714;2023-02-19T15:19:48;6.07;;;1.50;;
75655;SDS011;64252;51.094;13.714;2023-02-19T15:22:14;7.07;;;2.25;;
75655;SDS011;64252;51.094;13.714;2023-02-19T15:24:44;3.50;;;1.25;;
75655;SDS011;64252;51.094;13.714;2023-02-19T15:27:14;5.65;;;1.17;;
75655;SDS011;64252;51.094;13.714;2023-02-19T15:29:48;5.05;;;0.93;;
75655;SDS011;64252;51.094;13.714;2023-02-19T15:32:17;3.33;;;1.08;;
75655;SDS011;64252;51.094;13.714;2023-02-19T15:34:59;3.95;;;1.15;;
75655;SDS011;64252;51.094;13.714;2023-02-19T15:37:30;4.00;;;0.90;;
75655;SDS011;64252;51.094;13.714;2023-02-19T15:39:58;5.85;;;1.35;;
75655;SDS011;64252;51.094;13.714;2023-02-19T15:42:31;6.25;;;2.00;;
75655;SDS011;64252;51.094;13.714;2023-02-19T15:47:44;4.50;;;1.30;;
75655;SDS011;64252;51.094;13.714;2023-02-19T15:50:15;4.50;;;1.40;;
75655;SDS011;64252;51.094;13.714;2023-02-19T15:52:49;2.63;;;1.17;;
75655;SDS011;64252;51.094;13.714;2023-02-19T15:57:49;3.58;;;0.85;;
75655;SDS011;64252;51.094;13.714;2023-02-19T16:00:39;1.58;;;0.57;;
75655;SDS011;64252;51.094;13.714;2023-02-19T16:03:15;3.50;;;0.98;;
75655;SDS011;64252;51.094;13.714;2023-02-19T16:05:44;4.13;;;0.75;;
75655;SDS011;64252;51.094;13.714;2023-02-19T16:10:35;3.13;;;0.90;;
75655;SDS011;64252;51.094;13.714;2023-02-19T16:13:01;3.40;;;0.90;;
75655;SDS011;64252;51.094;13.714;2023-02-19T16:15:30;6.03;;;1.25;;
75655;SDS011;64252;51.094;13.714;2023-02-19T16:17:57;4.15;;;1.30;;
75655;SDS011;64252;51.094;13.714;2023-02-19T16:20:25;4.40;;;1.10;;
75655;SDS011;64252;51.094;13.714;2023-02-19T16:23:00;6.30;;;1.50;;
75655;SDS011;64252;51.094;13.714;2023-02-19T16:25:29;4.72;;;2.13;;
75655;SDS011;64252;51.094;13.714;2023-02-19T16:27:55;6.53;;;2.45;;
75655;SDS011;64252;51.094;13.714;2023-02-19T16:35:56;5.28;;;1.27;;
75655;SDS011;64252;51.094;13.714;2023-02-19T16:38:22;5.88;;;1.88;;
75655;SDS011;64252;51.094;13.714;2023-02-19T16:45:55;5.88;;;1.25;;
75655;SDS011;64252;51.094;13.714;2023-02-19T16:48:22;2.78;;;1.08;;
75655;SDS011;64252;51.094;13.714;2023-02-19T16:50:48;6.03;;;1.75;;
75655;SDS011;64252;51.094;13.714;2023-02-19T16:53:18;7.63;;;3.25;;
75655;SDS011;64252;51.094;13.714;2023-02-19T16:55:45;5.30;;;1.35;;
75655;SDS011;64252;51.094;13.714;2023-02-19T16:58:15;5.68;;;1.55;;
75655;SDS011;64252;51.094;13.714;2023-02-19T17:00:41;3.60;;;1.10;;
75655;SDS011;64252;51.094;13.714;2023-02-19T17:03:10;5.25;;;1.23;;
75655;SDS011;64252;51.094;13.714;2023-02-19T17:05:40;3.28;;;1.40;;
75655;SDS011;64252;51.094;13.714;2023-02-19T17:10:51;8.55;;;3.42;;
75655;SDS011;64252;51.094;13.714;2023-02-19T17:13:17;7.25;;;2.30;;
75655;SDS011;64252;51.094;13.714;2023-02-19T17:15:43;5.00;;;1.95;;
75655;SDS011;64252;51.094;13.714;2023-02-19T17:18:10;4.65;;;1.60;;
75655;SDS011;64252;51.094;13.714;2023-02-19T17:20:36;6.97;;;2.45;;
75655;SDS011;64252;51.094;13.714;2023-02-19T17:23:02;6.45;;;1.98;;
75655;SDS011;64252;51.094;13.714;2023-02-19T17:25:28;4.65;;;1.80;;
75655;SDS011;64252;51.094;13.714;2023-02-19T17:27:54;7.25;;;2.13;;
75655;SDS011;64252;51.094;13.714;2023-02-19T17:30:30;5.90;;;2.53;;
75655;SDS011;64252;51.094;13.714;2023-02-19T17:32:58;4.97;;;2.70;;
75655;SDS011;64252;51.094;13.714;2023-02-19T17:35:23;5.85;;;2.72;;
75655;SDS011;64252;51.094;13.714;2023-02-19T17:37:50;5.82;;;2.83;;
75655;SDS011;64252;51.094;13.714;2023-02-19T17:40:26;5.55;;;2.40;;
75655;SDS011;64252;51.094;13.714;2023-02-19T17:42:53;7.10;;;2.63;;
75655;SDS011;64252;51.094;13.714;2023-02-19T17:45:19;7.13;;;2.65;;
75655;SDS011;64252;51.094;13.714;2023-02-19T17:47:46;7.13;;;3.10;;
75655;SDS011;64252;51.094;13.714;2023-02-19T17:50:15;6.35;;;2.75;;
75655;SDS011;64252;51.094;13.714;2023-02-19T17:52:44;6.43;;;2.70;;